Time;durP1;ratioP1;P1;durP2;ratioP2;P2;SDS_P1;SDS_P2;PMS_P1;PMS_P2;Temp;Humidity;BMP_temperature;BMP_pressure;BME280_temperature;BME280_humidity;BME280_pressure;Samples;Min_cycle;Max_cycle;Signal;HPM_P1;HPM_P2
2023/12/24 00:03:42;;;;;;;58.75;53.28;;;5.00;87.20;;;;;;12571273;28;20028;-74
2023/12/24 00:09:44;;;;;;;65.00;58.47;;;4.90;87.10;;;;;;12604865;28;20134;-74
2023/12/24 00:15:45;;;;;;;58.83;51.47;;;4.80;87.00;;;;;;12587323;28;20032;-74
2023/12/24 00:21:47;;;;;;;60.90;54.60;;;4.70;87.10;;;;;;12604871;28;20029;-74
2023/12/24 00:27:49;;;;;;;48.80;39.58;;;4.80;87.10;;;;;;12604569;28;20445;-74
2023/12/24 00:33:50;;;;;;;49.78;42.00;;;4.80;87.30;;;;;;12604581;28;20035;-75
2023/12/24 00:39:52;;;;;;;55.15;48.80;;;4.80;87.30;;;;;;12586549;28;20025;-74
2023/12/24 00:45:54;;;;;;;55.22;49.08;;;4.80;87.20;;;;;;12604050;28;20050;-75
2023/12/24 00:51:56;;;;;;;46.50;38.45;;;4.90;87.40;;;;;;12603987;28;20047;-75
2023/12/24 00:57:58;;;;;;;56.17;51.65;;;4.90;87.20;;;;;;12585896;28;20365;-74
2023/12/24 01:03:59;;;;;;;55.72;47.72;;;4.90;87.30;;;;;;12569214;28;20452;-74
2023/12/24 01:10:01;;;;;;;70.28;63.28;;;4.80;87.20;;;;;;12569183;28;20352;-75
2023/12/24 01:16:03;;;;;;;37.47;32.83;;;4.80;87.30;;;;;;12585710;28;20511;-75
2023/12/24 01:22:04;;;;;;;62.72;56.92;;;4.70;87.30;;;;;;12590477;28;20040;-75
2023/12/24 01:28:06;;;;;;;50.60;41.17;;;4.70;87.40;;;;;;12595094;28;20032;-75
2023/12/24 01:34:08;;;;;;;42.22;38.25;;;4.70;87.30;;;;;;12612741;28;20024;-75
2023/12/24 01:40:10;;;;;;;43.00;38.50;;;4.70;87.40;;;;;;12594628;28;20341;-75
2023/12/24 01:46:13;;;;;;;78.40;70.40;;;4.70;87.40;;;;;;12561769;28;20044;-74
2023/12/24 01:52:17;;;;;;;81.72;73.07;;;4.70;87.10;;;;;;12594705;28;20035;-75
2023/12/24 01:58:19;;;;;;;73.53;67.15;;;4.60;87.40;;;;;;12593709;28;20326;-75
2023/12/24 02:04:22;;;;;;;59.67;53.08;;;4.50;87.50;;;;;;12593468;28;20437;-75
2023/12/24 02:10:24;;;;;;;64.22;58.10;;;4.60;87.80;;;;;;12593233;28;20032;-75
2023/12/24 02:16:31;;;;;;;59.00;53.35;;;4.80;87.70;;;;;;12592961;28;20033;-74
2023/12/24 02:22:33;;;;;;;64.03;58.20;;;4.80;87.50;;;;;;12610491;28;20310;-75
2023/12/24 02:28:42;;;;;;;63.47;56.70;;;4.70;87.30;;;;;;12575878;28;20032;-75
2023/12/24 02:34:47;;;;;;;75.55;67.32;;;4.60;87.30;;;;;;12609453;28;20047;-74
2023/12/24 02:40:49;;;;;;;51.28;44.95;;;4.50;87.20;;;;;;12609711;28;20028;-75
2023/12/24 02:46:50;;;;;;;57.70;49.53;;;4.40;87.50;;;;;;12609356;28;20036;-75
2023/12/24 02:52:52;;;;;;;62.13;55.50;;;4.50;87.70;;;;;;12609124;28;20036;-75
2023/12/24 02:58:53;;;;;;;59.55;53.47;;;4.60;87.60;;;;;;12590917;28;20468;-75
2023/12/24 03:04:55;;;;;;;44.17;39.40;;;4.50;87.50;;;;;;12574629;28;20048;-72
2023/12/24 03:10:57;;;;;;;56.33;50.50;;;4.50;87.50;;;;;;12608200;28;20025;-72
2023/12/24 03:16:58;;;;;;;46.05;41.42;;;4.60;87.60;;;;;;12607922;28;20039;-71
2023/12/24 03:23:00;;;;;;;49.20;42.15;;;4.60;87.50;;;;;;12607659;28;20035;-71
2023/12/24 03:29:01;;;;;;;73.40;65.38;;;4.70;87.50;;;;;;12589393;28;20040;-72
2023/12/24 03:35:03;;;;;;;48.83;43.88;;;4.60;87.30;;;;;;12607844;28;20437;-72
2023/12/24 03:41:06;;;;;;;68.30;61.97;;;4.50;87.40;;;;;;12589040;28;20036;-71
2023/12/24 03:47:08;;;;;;;55.17;49.95;;;4.40;87.40;;;;;;12605549;28;20037;-72
2023/12/24 03:53:10;;;;;;;55.15;50.13;;;4.40;87.60;;;;;;12588436;28;20027;-75
2023/12/24 03:59:11;;;;;;;71.57;64.30;;;4.40;87.50;;;;;;12571526;28;20369;-75
2023/12/24 04:05:13;;;;;;;65.35;59.00;;;4.40;87.30;;;;;;12587790;28;20319;-75
2023/12/24 04:11:18;;;;;;;56.65;46.47;;;4.20;87.20;;;;;;12605368;28;20032;-75
2023/12/24 04:17:21;;;;;;;52.63;47.17;;;4.20;87.40;;;;;;12554752;28;20047;-71
2023/12/24 04:23:22;;;;;;;56.15;48.88;;;4.20;87.60;;;;;;12604930;28;20453;-72
2023/12/24 04:29:24;;;;;;;72.65;64.97;;;4.20;87.40;;;;;;12604641;28;20333;-72
2023/12/24 04:35:26;;;;;;;65.95;59.08;;;4.20;87.30;;;;;;12604500;28;20040;-71
2023/12/24 04:41:28;;;;;;;68.65;61.67;;;3.90;87.00;;;;;;12586548;28;20040;-72
2023/12/24 04:47:30;;;;;;;77.00;69.45;;;3.90;87.50;;;;;;12586274;28;20032;-71
2023/12/24 04:53:32;;;;;;;62.80;56.47;;;3.90;87.60;;;;;;12586186;28;20425;-72
2023/12/24 04:59:34;;;;;;;63.70;57.25;;;4.00;87.40;;;;;;12603748;28;20036;-72
2023/12/24 05:05:36;;;;;;;53.33;47.95;;;4.00;87.60;;;;;;12585879;28;20326;-72
2023/12/24 05:11:42;;;;;;;40.60;36.35;;;4.00;87.50;;;;;;12585688;28;20340;-75
2023/12/24 05:17:43;;;;;;;61.88;56.00;;;4.00;87.50;;;;;;12603402;28;20036;-75
2023/12/24 05:23:45;;;;;;;59.08;52.55;;;4.10;87.60;;;;;;12585506;28;20029;-75
2023/12/24 05:29:46;;;;;;;62.75;52.38;;;4.10;87.30;;;;;;12585357;28;20436;-75
2023/12/24 05:35:48;;;;;;;49.03;44.20;;;4.00;87.40;;;;;;12585163;28;20028;-75
2023/12/24 05:41:49;;;;;;;58.60;52.47;;;4.00;87.30;;;;;;12602851;28;20033;-75
2023/12/24 05:47:51;;;;;;;62.00;55.92;;;3.90;87.50;;;;;;12584793;28;20040;-75
2023/12/24 05:53:52;;;;;;;53.45;48.47;;;3.90;87.50;;;;;;12602594;28;20433;-75
2023/12/24 05:59:54;;;;;;;72.05;64.65;;;4.00;87.50;;;;;;12602348;28;20032;-75
2023/12/24 06:05:55;;;;;;;57.67;51.53;;;4.00;87.50;;;;;;12603541;28;20397;-75
2023/12/24 06:11:57;;;;;;;59.33;53.63;;;3.90;87.40;;;;;;12610962;28;20029;-75
2023/12/24 06:17:58;;;;;;;38.33;33.47;;;4.00;87.70;;;;;;12610985;28;20028;-75
2023/12/24 06:24:01;;;;;;;50.78;46.60;;;4.10;87.70;;;;;;12610729;28;20033;-75
2023/12/24 06:30:04;;;;;;;51.67;46.45;;;4.10;87.60;;;;;;12610233;28;20448;-75
2023/12/24 06:36:07;;;;;;;78.05;70.07;;;4.10;87.60;;;;;;12609935;28;20036;-75
2023/12/24 06:42:08;;;;;;;46.67;41.55;;;4.00;87.50;;;;;;12609765;28;20032;-75
2023/12/24 06:48:10;;;;;;;54.42;49.40;;;3.80;87.50;;;;;;12591523;28;20032;-75
2023/12/24 06:54:12;;;;;;;47.33;40.63;;;3.70;87.60;;;;;;12609125;28;20025;-75
2023/12/24 07:00:15;;;;;;;48.25;43.67;;;3.70;87.60;;;;;;12653615;23;20067;-75
2023/12/24 07:06:23;;;;;;;;;;;3.80;87.70;;;;;;12661237;28;20048;-75
2023/12/24 07:12:25;;;;;;;37.65;32.25;;;3.80;87.50;;;;;;12659305;28;19908;-75
2023/12/24 07:18:28;;;;;;;43.47;39.13;;;3.80;87.50;;;;;;12658137;28;20028;-75
2023/12/24 07:25:22;;;;;;;48.83;44.22;;;3.80;87.60;;;;;;12657759;28;20032;-75
2023/12/24 07:31:24;;;;;;;48.78;44.22;;;3.90;87.50;;;;;;12639627;28;20441;-75
2023/12/24 07:37:25;;;;;;;53.42;49.17;;;3.90;87.40;;;;;;12657268;28;20032;-75
2023/12/24 07:43:29;;;;;;;36.22;32.15;;;4.00;87.50;;;;;;12656976;28;20020;-75
2023/12/24 07:49:31;;;;;;;45.38;40.72;;;4.00;87.40;;;;;;12656590;28;20042;-75
2023/12/24 07:55:33;;;;;;;50.65;40.92;;;4.00;87.50;;;;;;12656949;28;20042;-75
2023/12/24 08:01:37;;;;;;;40.20;35.92;;;4.10;87.50;;;;;;12638008;28;20044;-75
2023/12/24 08:07:39;;;;;;;42.58;38.80;;;4.20;87.50;;;;;;12655771;28;20039;-75
2023/12/24 08:13:40;;;;;;;34.35;30.95;;;4.20;87.50;;;;;;12655643;28;20054;-75
2023/12/24 08:19:42;;;;;;;49.25;45.25;;;4.20;87.60;;;;;;12655308;28;20039;-75
2023/12/24 08:25:45;;;;;;;36.05;32.17;;;4.40;87.60;;;;;;12637520;28;20433;-75
2023/12/24 08:32:03;;;;;;;54.90;49.78;;;4.40;87.50;;;;;;12654420;28;20043;-75
2023/12/24 08:38:15;;;;;;;51.55;46.55;;;4.50;87.60;;;;;;12637806;28;20039;-75
2023/12/24 08:44:19;;;;;;;37.95;30.85;;;4.60;87.40;;;;;;12654393;28;20095;-75
2023/12/24 08:50:21;;;;;;;45.70;40.90;;;4.70;87.40;;;;;;12654334;28;20028;-74
2023/12/24 08:56:24;;;;;;;49.58;44.80;;;4.70;87.40;;;;;;12654062;28;20047;-75
2023/12/24 09:02:29;;;;;;;43.78;39.13;;;4.80;87.40;;;;;;12654042;28;20027;-75
2023/12/24 09:08:33;;;;;;;53.90;49.10;;;4.90;87.40;;;;;;12653835;28;20036;-75
2023/12/24 09:14:36;;;;;;;36.30;29.55;;;5.00;87.30;;;;;;12619217;28;20321;-75
2023/12/24 09:20:53;;;;;;;33.55;28.13;;;5.10;87.30;;;;;;12635401;28;20051;-75
2023/12/24 09:26:55;;;;;;;76.72;69.38;;;5.20;87.30;;;;;;12653395;28;20028;-75
2023/12/24 09:32:58;;;;;;;71.55;65.65;;;5.40;87.30;;;;;;12653242;28;20028;-75
2023/12/24 09:39:00;;;;;;;78.15;71.53;;;5.50;87.20;;;;;;12618554;28;20043;-75
2023/12/24 09:45:02;;;;;;;46.78;40.17;;;5.60;87.10;;;;;;12660690;28;20032;-75
2023/12/24 09:51:06;;;;;;;52.03;46.45;;;5.70;87.10;;;;;;12627413;28;20036;-75
2023/12/24 09:57:08;;;;;;;49.63;44.22;;;5.80;87.00;;;;;;12652865;28;20051;-75
2023/12/24 10:03:10;;;;;;;121.68;113.38;;;5.90;87.00;;;;;;12644235;28;20035;-75
2023/12/24 10:09:11;;;;;;;151.23;140.65;;;6.10;87.10;;;;;;12712048;28;20371;-75
2023/12/24 10:15:19;;;;;;;146.90;137.27;;;6.30;87.00;;;;;;12677294;28;20348;-74
2023/12/24 10:21:21;;;;;;;158.02;148.18;;;6.50;86.90;;;;;;12711559;28;20093;-74
2023/12/24 10:27:22;;;;;;;174.15;164.55;;;6.70;86.70;;;;;;12711040;28;20032;-74
2023/12/24 10:33:24;;;;;;;191.98;181.23;;;6.90;86.60;;;;;;12711742;28;20023;-74
2023/12/24 10:39:26;;;;;;;175.48;165.75;;;7.10;86.50;;;;;;12692939;28;20148;-74
2023/12/24 10:45:28;;;;;;;93.75;87.13;;;7.30;86.30;;;;;;12692165;28;20031;-74
2023/12/24 10:51:30;;;;;;;112.78;105.68;;;7.50;86.20;;;;;;12661735;28;20337;-74
2023/12/24 10:58:00;;;;;;;43.63;38.72;;;7.80;86.00;;;;;;12659023;28;20356;-74
2023/12/24 11:04:03;;;;;;;40.95;32.03;;;8.00;85.70;;;;;;12658947;28;20338;-74
2023/12/24 11:10:10;;;;;;;37.53;29.50;;;8.30;85.50;;;;;;12658593;28;20047;-74
2023/12/24 11:16:37;;;;;;;30.70;27.27;;;8.50;85.10;;;;;;12658320;28;20032;-74
2023/12/24 11:22:38;;;;;;;32.22;25.50;;;8.70;85.00;;;;;;12658025;28;20028;-74
2023/12/24 11:28:40;;;;;;;39.17;28.65;;;8.60;85.00;;;;;;12653276;28;20440;-74
2023/12/24 11:35:23;;;;;;;30.50;26.77;;;8.80;85.00;;;;;;12657823;28;20028;-74
2023/12/24 11:41:25;;;;;;;35.03;26.48;;;9.10;84.50;;;;;;12652050;28;20036;-74
2023/12/24 11:47:27;;;;;;;34.88;28.63;;;9.30;84.10;;;;;;12641163;28;20091;-74
2023/12/24 11:53:41;;;;;;;31.88;27.25;;;9.50;83.80;;;;;;12656532;28;20028;-74
2023/12/24 11:59:43;;;;;;;31.55;27.75;;;9.60;83.80;;;;;;12656310;28;20349;-73
2023/12/24 12:05:44;;;;;;;27.90;24.10;;;9.70;83.80;;;;;;12655338;28;20356;-74
2023/12/24 12:11:47;;;;;;;32.13;23.42;;;9.80;83.70;;;;;;12655834;28;20433;-74
2023/12/24 12:17:49;;;;;;;33.90;26.58;;;9.80;83.80;;;;;;12637615;28;20040;-74
2023/12/24 12:23:51;;;;;;;28.85;23.63;;;9.90;83.70;;;;;;12648362;28;20040;-74
2023/12/24 12:29:52;;;;;;;26.38;19.90;;;10.00;83.60;;;;;;12636939;28;20032;-74
2023/12/24 12:35:55;;;;;;;24.63;16.77;;;10.10;83.50;;;;;;12654761;28;20036;-74
2023/12/24 12:41:57;;;;;;;24.35;21.05;;;10.20;83.50;;;;;;12654602;28;20028;-74
2023/12/24 12:47:59;;;;;;;32.38;17.42;;;10.20;83.40;;;;;;12654293;28;20441;-74
2023/12/24 12:54:06;;;;;;;22.73;17.35;;;10.30;83.30;;;;;;12636319;28;20447;-74
2023/12/24 13:00:13;;;;;;;24.63;15.45;;;10.50;83.30;;;;;;12653455;28;20337;-74
2023/12/24 13:06:15;;;;;;;22.55;16.92;;;10.60;83.20;;;;;;12653905;28;20036;-74
2023/12/24 13:12:20;;;;;;;22.40;18.15;;;10.70;83.20;;;;;;12653417;28;20032;-71
2023/12/24 13:18:29;;;;;;;21.33;17.15;;;10.80;83.00;;;;;;12661774;28;20032;-71
2023/12/24 13:24:32;;;;;;;21.00;16.53;;;11.00;82.70;;;;;;12664326;28;20043;-72
2023/12/24 13:30:50;;;;;;;20.17;15.88;;;11.20;82.50;;;;;;12629620;28;20294;-72
2023/12/24 13:36:51;;;;;;;23.90;17.65;;;11.30;82.40;;;;;;12663731;28;20032;-72
2023/12/24 13:42:58;;;;;;;19.08;16.17;;;11.20;82.60;;;;;;12662413;28;20024;-72
2023/12/24 13:49:21;;;;;;;25.25;18.15;;;10.90;83.10;;;;;;12662530;28;20032;-72
2023/12/24 13:55:34;;;;;;;21.42;18.70;;;10.80;83.50;;;;;;12662216;28;20035;-72
2023/12/24 14:01:36;;;;;;;22.50;16.85;;;10.70;84.00;;;;;;12661966;28;20039;-72
2023/12/24 14:07:38;;;;;;;22.83;15.80;;;10.60;84.20;;;;;;12661735;28;20322;-72
2023/12/24 14:13:40;;;;;;;25.15;16.17;;;10.50;84.50;;;;;;12661494;28;20028;-72
2023/12/24 14:20:14;;;;;;;22.63;20.17;;;10.50;84.70;;;;;;12626330;28;20353;-72
2023/12/24 14:26:20;;;;;;;23.30;19.15;;;10.70;84.90;;;;;;12642135;28;20031;-72
2023/12/24 14:32:22;;;;;;;24.60;19.17;;;11.30;84.00;;;;;;12660421;28;20032;-72
2023/12/24 14:38:24;;;;;;;27.08;19.48;;;11.70;82.90;;;;;;12642304;28;20035;-72
2023/12/24 14:44:35;;;;;;;24.35;16.15;;;11.80;82.70;;;;;;12644279;28;20039;-72
2023/12/24 14:50:38;;;;;;;18.95;16.40;;;11.70;83.10;;;;;;12609468;28;20345;-72
2023/12/24 14:56:40;;;;;;;23.40;16.17;;;11.40;83.70;;;;;;12615092;22;20056;-72
2023/12/24 15:02:43;;;;;;;25.20;18.60;;;11.30;84.10;;;;;;12608862;28;20036;-72
2023/12/24 15:08:48;;;;;;;22.73;16.80;;;11.20;84.30;;;;;;12575229;28;20044;-72
2023/12/24 15:14:51;;;;;;;26.80;20.63;;;11.00;84.70;;;;;;12608342;28;20029;-72
2023/12/24 15:20:52;;;;;;;22.00;19.13;;;10.80;85.00;;;;;;12608012;28;20341;-72
2023/12/24 15:26:54;;;;;;;27.45;18.63;;;10.70;85.30;;;;;;12606503;28;20037;-72
2023/12/24 15:32:55;;;;;;;34.97;20.23;;;10.50;85.60;;;;;;12606027;28;20036;-72
2023/12/24 15:38:57;;;;;;;24.60;19.88;;;10.40;85.90;;;;;;12606022;28;20040;-72
2023/12/24 15:45:00;;;;;;;40.25;33.80;;;10.20;86.20;;;;;;12606325;28;20035;-72
2023/12/24 15:51:03;;;;;;;37.45;30.00;;;10.10;86.50;;;;;;12606273;28;20032;-72
2023/12/24 15:57:05;;;;;;;37.47;26.45;;;10.00;86.60;;;;;;12606090;28;20028;-72
2023/12/24 16:03:07;;;;;;;36.33;28.75;;;9.90;86.80;;;;;;12656203;28;20349;-72
2023/12/24 16:09:09;;;;;;;35.10;26.27;;;9.70;87.00;;;;;;12655970;28;20028;-71
2023/12/24 16:15:11;;;;;;;38.40;31.67;;;9.60;87.10;;;;;;12629949;28;20044;-72
2023/12/24 16:21:12;;;;;;;33.35;27.73;;;9.60;87.30;;;;;;12649335;28;20451;-72
2023/12/24 16:27:14;;;;;;;41.15;30.88;;;9.50;87.30;;;;;;12649096;28;20032;-71
2023/12/24 16:33:16;;;;;;;44.47;35.35;;;9.40;87.40;;;;;;12649370;28;20024;-71
2023/12/24 16:39:17;;;;;;;38.28;34.08;;;9.30;87.50;;;;;;12648868;28;20459;-72
2023/12/24 16:45:19;;;;;;;47.58;39.67;;;9.30;87.50;;;;;;12648744;28;20035;-72
2023/12/24 16:51:21;;;;;;;44.70;33.42;;;9.20;87.50;;;;;;12647904;28;20036;-72
2023/12/24 16:57:22;;;;;;;43.05;37.83;;;9.10;87.50;;;;;;12630623;28;20032;-72
2023/12/24 17:03:24;;;;;;;65.63;60.75;;;9.00;87.60;;;;;;12648134;28;20364;-71
2023/12/24 17:09:25;;;;;;;61.05;56.70;;;8.90;87.60;;;;;;12616162;28;20342;-71
2023/12/24 17:15:27;;;;;;;88.60;83.43;;;8.90;87.60;;;;;;12632403;28;20044;-75
2023/12/24 17:22:02;;;;;;;78.55;72.97;;;8.80;87.70;;;;;;12648892;28;20028;-71
2023/12/24 17:28:24;;;;;;;68.97;64.55;;;8.70;87.60;;;;;;12442898;28;20050;-71
2023/12/24 17:34:25;;;;;;;92.85;87.75;;;8.60;87.70;;;;;;12445467;28;20061;-74
2023/12/24 17:40:27;;;;;;;117.38;110.50;;;8.60;87.80;;;;;;12341904;28;20057;-74
2023/12/24 17:46:32;;;;;;;136.13;128.18;;;8.60;87.80;;;;;;12352144;28;20042;-74
2023/12/24 17:52:36;;;;;;;102.55;96.03;;;8.50;87.80;;;;;;12336177;28;20043;-74
2023/12/24 17:58:42;;;;;;;109.50;103.47;;;8.40;87.70;;;;;;12335979;28;20494;-74
2023/12/24 18:04:44;;;;;;;65.45;61.45;;;8.40;87.80;;;;;;12602772;28;20055;-74
2023/12/24 18:10:45;;;;;;;81.22;75.32;;;8.40;87.80;;;;;;12593965;28;20052;-74
2023/12/24 18:16:47;;;;;;;60.42;55.85;;;8.40;87.70;;;;;;12576842;28;20037;-71
2023/12/24 18:22:48;;;;;;;153.63;145.93;;;8.30;87.80;;;;;;12610871;28;20029;-72
2023/12/24 18:28:50;;;;;;;114.88;108.60;;;8.30;87.90;;;;;;12610582;28;20029;-71
2023/12/24 18:34:51;;;;;;;133.55;127.10;;;8.20;87.80;;;;;;12610486;28;20025;-71
2023/12/24 18:40:53;;;;;;;59.60;55.85;;;8.20;87.90;;;;;;12625848;28;20370;-71
2023/12/24 18:46:59;;;;;;;144.25;137.10;;;8.20;87.90;;;;;;12592277;28;20039;-71
2023/12/24 18:53:03;;;;;;;99.85;94.38;;;8.20;87.90;;;;;;12609564;28;20043;-71
2023/12/24 18:59:10;;;;;;;72.10;67.68;;;8.10;87.90;;;;;;12624876;28;20352;-72
2023/12/24 19:05:13;;;;;;;134.60;127.50;;;8.10;87.80;;;;;;12609878;28;20037;-71
2023/12/24 19:11:16;;;;;;;75.25;70.47;;;8.00;87.80;;;;;;12590889;28;20045;-71
2023/12/24 19:17:17;;;;;;;141.93;134.75;;;7.90;87.90;;;;;;12608803;28;20367;-71
2023/12/24 19:23:19;;;;;;;59.58;55.50;;;8.00;87.90;;;;;;12608034;28;20032;-71
2023/12/24 19:37:15;;;;;;;56.30;52.50;;;7.90;87.90;;;;;;12607133;28;20037;-72
2023/12/24 19:43:16;;;;;;;149.55;142.18;;;7.80;87.90;;;;;;12607081;28;20338;-71
2023/12/24 19:49:18;;;;;;;57.75;54.03;;;7.80;87.80;;;;;;12606701;28;20035;-71
2023/12/24 19:55:20;;;;;;;57.17;53.13;;;7.80;87.90;;;;;;12609060;28;20024;-71
2023/12/24 20:01:21;;;;;;;68.18;62.75;;;7.70;87.90;;;;;;12656461;28;20024;-72
2023/12/24 20:07:36;;;;;;;148.65;140.95;;;7.70;87.90;;;;;;12656169;28;20039;-71
2023/12/24 20:13:38;;;;;;;50.63;46.55;;;7.60;87.80;;;;;;12656031;28;20020;-72
2023/12/24 20:19:40;;;;;;;175.77;166.55;;;7.60;87.90;;;;;;12638204;28;20047;-71
2023/12/24 20:25:42;;;;;;;72.50;67.68;;;7.50;87.80;;;;;;12653744;28;20028;-72
2023/12/24 20:31:44;;;;;;;55.10;50.75;;;7.50;87.80;;;;;;12653957;28;20053;-72
2023/12/24 20:37:46;;;;;;;45.53;42.22;;;7.40;87.90;;;;;;12654462;28;20031;-72
2023/12/24 20:43:49;;;;;;;55.10;50.78;;;7.40;87.90;;;;;;12654735;28;20032;-72
2023/12/24 20:49:53;;;;;;;52.97;48.85;;;7.30;87.70;;;;;;12653462;28;20352;-71
2023/12/24 20:55:56;;;;;;;94.30;88.72;;;7.30;87.80;;;;;;12653126;28;20035;-71
2023/12/24 21:02:10;;;;;;;42.90;39.13;;;7.20;87.80;;;;;;12653154;28;20039;-72
2023/12/24 21:08:12;;;;;;;44.47;40.63;;;7.20;87.80;;;;;;12653986;28;20036;-72
2023/12/24 21:14:13;;;;;;;40.60;37.53;;;7.20;87.80;;;;;;12652618;28;20028;-72
2023/12/24 21:20:15;;;;;;;49.83;45.97;;;7.20;87.80;;;;;;12653483;28;20336;-71
2023/12/24 21:26:18;;;;;;;40.63;37.08;;;7.20;87.80;;;;;;12652241;28;20040;-71
2023/12/24 21:32:35;;;;;;;117.95;111.60;;;7.20;87.80;;;;;;12653465;28;20039;-71
2023/12/24 21:38:36;;;;;;;46.25;42.45;;;7.20;87.90;;;;;;12659280;28;20024;-71
2023/12/24 21:45:25;;;;;;;165.70;156.68;;;7.40;87.90;;;;;;12663108;28;20352;-71
2023/12/24 21:51:26;;;;;;;46.40;42.28;;;7.40;87.80;;;;;;12661614;28;20051;-72
2023/12/24 21:57:28;;;;;;;72.40;67.22;;;7.40;87.80;;;;;;12645317;28;20058;-71
2023/12/24 22:03:30;;;;;;;70.72;66.00;;;7.50;87.70;;;;;;12661007;28;20028;-71
2023/12/24 22:09:32;;;;;;;61.60;57.38;;;7.40;87.70;;;;;;12662688;28;20043;-71
2023/12/24 22:15:33;;;;;;;58.90;54.00;;;7.40;87.80;;;;;;12661677;28;20344;-71
2023/12/24 22:21:45;;;;;;;59.88;55.17;;;7.40;87.70;;;;;;12660138;28;20459;-71
2023/12/24 22:27:47;;;;;;;55.95;51.90;;;7.40;87.70;;;;;;12660948;28;20043;-71
2023/12/24 22:33:48;;;;;;;131.75;124.05;;;7.30;87.70;;;;;;12660792;28;20032;-71
2023/12/24 22:39:50;;;;;;;156.70;147.98;;;7.30;87.70;;;;;;12659326;28;20032;-71
2023/12/24 22:45:52;;;;;;;69.43;64.35;;;7.20;87.70;;;;;;12659456;28;20340;-72
2023/12/24 22:51:53;;;;;;;44.95;41.05;;;7.20;87.70;;;;;;12659224;28;20428;-71
2023/12/24 22:57:55;;;;;;;46.78;41.67;;;7.10;87.70;;;;;;12647820;22;20380;-71
2023/12/24 23:03:57;;;;;;;122.20;115.75;;;7.10;87.80;;;;;;12659012;28;20038;-71
2023/12/24 23:09:59;;;;;;;64.07;59.67;;;7.10;87.70;;;;;;12640965;28;20032;-75
2023/12/24 23:16:01;;;;;;;48.50;43.55;;;7.00;87.70;;;;;;12640792;28;20086;-71
2023/12/24 23:22:06;;;;;;;44.60;35.60;;;7.00;87.60;;;;;;12658051;28;20421;-71
2023/12/24 23:28:08;;;;;;;34.88;30.98;;;6.90;87.60;;;;;;12678762;28;20035;-71
2023/12/24 23:34:10;;;;;;;39.63;33.63;;;6.80;87.70;;;;;;12690196;28;20028;-71
2023/12/24 23:40:12;;;;;;;55.63;50.78;;;6.80;87.60;;;;;;12657502;28;20051;-71
2023/12/24 23:46:13;;;;;;;36.72;33.35;;;6.90;87.60;;;;;;12657489;28;20441;-75
2023/12/24 23:52:15;;;;;;;34.92;31.60;;;6.80;87.50;;;;;;12656892;28;20036;-75
2023/12/24 23:58:19;;;;;;;106.63;100.53;;;6.80;87.50;;;;;;12655127;28;20334;-74
